sensor_id;sensor_type;location;lat;lon;timestamp;temperature;humidity
28863;DHT22;15994;51.796;13.006;2023-03-14T00:00:50;11.60;99.90
28863;DHT22;15994;51.796;13.006;2023-03-14T00:03:17;11.60;99.90
28863;DHT22;15994;51.796;13.006;2023-03-14T00:05:43;11.60;99.90
28863;DHT22;15994;51.796;13.006;2023-03-14T00:08:10;11.50;99.90
28863;DHT22;15994;51.796;13.006;2023-03-14T00:10:37;11.40;99.90
28863;DHT22;15994;51.796;13.006;2023-03-14T00:13:04;11.40;99.90
28863;DHT22;15994;51.796;13.006;2023-03-14T00:15:33;11.40;99.90
28863;DHT22;15994;51.796;13.006;2023-03-14T00:18:00;11.50;99.90
28863;DHT22;15994;51.796;13.006;2023-03-14T00:23:49;11.50;99.90
28863;DHT22;15994;51.796;13.006;2023-03-14T00:26:18;11.40;99.90
28863;DHT22;15994;51.796;13.006;2023-03-14T00:28:45;11.40;99.90
28863;DHT22;15994;51.796;13.006;2023-03-14T00:31:14;11.40;99.90
28863;DHT22;15994;51.796;13.006;2023-03-14T00:33:42;11.40;99.90
28863;DHT22;15994;51.796;13.006;2023-03-14T00:36:15;11.30;99.90
28863;DHT22;15994;51.796;13.006;2023-03-14T00:38:43;11.30;99.90
28863;DHT22;15994;51.796;13.006;2023-03-14T00:41:15;11.20;99.90
28863;DHT22;15994;51.796;13.006;2023-03-14T00:43:42;11.20;99.90
28863;DHT22;15994;51.796;13.006;2023-03-14T00:46:09;11.10;99.90
28863;DHT22;15994;51.796;13.006;2023-03-14T00:48:36;11.10;99.90
28863;DHT22;15994;51.796;13.006;2023-03-14T00:51:06;11.10;99.90
28863;DHT22;15994;51.796;13.006;2023-03-14T00:53:37;11.10;99.90
28863;DHT22;15994;51.796;13.006;2023-03-14T00:56:05;11.00;99.90
28863;DHT22;15994;51.796;13.006;2023-03-14T00:58:32;11.00;99.90
28863;DHT22;15994;51.796;13.006;2023-03-14T01:01:04;11.00;99.90
28863;DHT22;15994;51.796;13.006;2023-03-14T01:03:31;11.00;99.90
28863;DHT22;15994;51.796;13.006;2023-03-14T01:06:11;10.90;99.90
28863;DHT22;15994;51.796;13.006;2023-03-14T01:08:38;10.90;99.90
28863;DHT22;15994;51.796;13.006;2023-03-14T01:11:13;10.90;99.90
28863;DHT22;15994;51.796;13.006;2023-03-14T01:13:41;10.90;99.90
28863;DHT22;15994;51.796;13.006;2023-03-14T01:16:09;10.90;99.90
28863;DHT22;15994;51.796;13.006;2023-03-14T01:18:37;10.90;99.90
28863;DHT22;15994;51.796;13.006;2023-03-14T01:21:14;11.00;99.90
28863;DHT22;15994;51.796;13.006;2023-03-14T01:23:41;10.90;99.90
28863;DHT22;15994;51.796;13.006;2023-03-14T01:26:12;11.00;99.90
28863;DHT22;15994;51.796;13.006;2023-03-14T01:28:40;11.00;99.90
28863;DHT22;15994;51.796;13.006;2023-03-14T01:31:08;11.00;99.90
28863;DHT22;15994;51.796;13.006;2023-03-14T01:33:35;11.10;99.90
28863;DHT22;15994;51.796;13.006;2023-03-14T01:36:03;11.00;99.90
28863;DHT22;15994;51.796;13.006;2023-03-14T01:38:30;11.10;99.90
28863;DHT22;15994;51.796;13.006;2023-03-14T01:40:57;11.10;99.90
28863;DHT22;15994;51.796;13.006;2023-03-14T01:43:25;11.10;99.90
28863;DHT22;15994;51.796;13.006;2023-03-14T01:49:37;11.20;99.90
28863;DHT22;15994;51.796;13.006;2023-03-14T01:51:51;11.20;99.90
28863;DHT22;15994;51.796;13.006;2023-03-14T01:54:24;11.20;99.90
28863;DHT22;15994;51.796;13.006;2023-03-14T01:59:34;11.10;99.90
28863;DHT22;15994;51.796;13.006;2023-03-14T02:02:04;11.20;99.90
28863;DHT22;15994;51.796;13.006;2023-03-14T02:04:34;11.20;99.90
28863;DHT22;15994;51.796;13.006;2023-03-14T02:07:15;11.20;99.90
28863;DHT22;15994;51.796;13.006;2023-03-14T02:09:42;11.20;99.90
28863;DHT22;15994;51.796;13.006;2023-03-14T02:12:10;11.20;99.90
28863;DHT22;15994;51.796;13.006;2023-03-14T02:14:37;11.30;99.90
28863;DHT22;15994;51.796;13.006;2023-03-14T02:17:06;11.30;99.90
28863;DHT22;15994;51.796;13.006;2023-03-14T02:22:19;11.30;99.90
28863;DHT22;15994;51.796;13.006;2023-03-14T02:25:04;11.30;99.90
28863;DHT22;15994;51.796;13.006;2023-03-14T02:27:34;11.30;99.90
28863;DHT22;15994;51.796;13.006;2023-03-14T02:30:05;11.30;99.90
28863;DHT22;15994;51.796;13.006;2023-03-14T02:32:33;11.30;99.90
28863;DHT22;15994;51.796;13.006;2023-03-14T02:35:04;11.30;99.90
28863;DHT22;15994;51.796;13.006;2023-03-14T02:37:48;11.30;99.90
28863;DHT22;15994;51.796;13.006;2023-03-14T02:40:15;11.30;99.90
28863;DHT22;15994;51.796;13.006;2023-03-14T02:42:42;11.30;99.90
28863;DHT22;15994;51.796;13.006;2023-03-14T02:47:39;11.30;99.90
28863;DHT22;15994;51.796;13.006;2023-03-14T02:50:10;11.30;99.90
28863;DHT22;15994;51.796;13.006;2023-03-14T02:52:38;11.30;99.90
28863;DHT22;15994;51.796;13.006;2023-03-14T02:55:05;11.30;99.90
28863;DHT22;15994;51.796;13.006;2023-03-14T02:57:31;11.30;99.90
28863;DHT22;15994;51.796;13.006;2023-03-14T02:59:59;11.30;99.90
28863;DHT22;15994;51.796;13.006;2023-03-14T03:02:27;11.30;99.90
28863;DHT22;15994;51.796;13.006;2023-03-14T03:04:53;11.30;99.90
28863;DHT22;15994;51.796;13.006;2023-03-14T03:07:20;11.30;99.90
28863;DHT22;15994;51.796;13.006;2023-03-14T03:09:47;11.30;99.90
28863;DHT22;15994;51.796;13.006;2023-03-14T03:12:13;11.30;99.90
28863;DHT22;15994;51.796;13.006;2023-03-14T03:14:40;11.30;99.90
28863;DHT22;15994;51.796;13.006;2023-03-14T03:17:06;11.30;99.90
28863;DHT22;15994;51.796;13.006;2023-03-14T03:19:33;11.30;99.90
28863;DHT22;15994;51.796;13.006;2023-03-14T03:22:00;11.20;99.90
28863;DHT22;15994;51.796;13.006;2023-03-14T03:24:27;11.20;99.90
28863;DHT22;15994;51.796;13.006;2023-03-14T03:26:54;11.10;99.90
28863;DHT22;15994;51.796;13.006;2023-03-14T03:29:21;11.10;99.90
28863;DHT22;15994;51.796;13.006;2023-03-14T03:31:47;11.10;99.90
28863;DHT22;15994;51.796;13.006;2023-03-14T03:34:14;11.10;99.90
28863;DHT22;15994;51.796;13.006;2023-03-14T03:36:41;11.10;99.90
28863;DHT22;15994;51.796;13.006;2023-03-14T03:39:07;11.10;99.90
28863;DHT22;15994;51.796;13.006;2023-03-14T03:41:34;11.10;99.90
28863;DHT22;15994;51.796;13.006;2023-03-14T03:44:00;11.10;99.90
28863;DHT22;15994;51.796;13.006;2023-03-14T03:46:27;11.10;99.90
28863;DHT22;15994;51.796;13.006;2023-03-14T03:48:57;11.10;99.90
28863;DHT22;15994;51.796;13.006;2023-03-14T03:51:24;11.10;99.90
28863;DHT22;15994;51.796;13.006;2023-03-14T03:53:51;11.10;99.90
28863;DHT22;15994;51.796;13.006;2023-03-14T03:56:18;11.10;99.90
28863;DHT22;15994;51.796;13.006;2023-03-14T03:58:44;11.00;99.90
28863;DHT22;15994;51.796;13.006;2023-03-14T04:01:11;11.00;99.90
28863;DHT22;15994;51.796;13.006;2023-03-14T04:03:37;11.00;99.90
28863;DHT22;15994;51.796;13.006;2023-03-14T04:06:10;11.00;99.90
28863;DHT22;15994;51.796;13.006;2023-03-14T04:08:38;10.90;99.90
28863;DHT22;15994;51.796;13.006;2023-03-14T04:11:06;10.90;99.90
28863;DHT22;15994;51.796;13.006;2023-03-14T04:13:32;10.90;99.90
28863;DHT22;15994;51.796;13.006;2023-03-14T04:15:59;10.90;99.90
28863;DHT22;15994;51.796;13.006;2023-03-14T04:18:26;10.80;99.90
28863;DHT22;15994;51.796;13.006;2023-03-14T04:20:56;10.90;99.90
28863;DHT22;15994;51.796;13.006;2023-03-14T04:23:24;10.90;99.90
28863;DHT22;15994;51.796;13.006;2023-03-14T04:25:51;10.90;99.90
28863;DHT22;15994;51.796;13.006;2023-03-14T04:28:18;10.90;99.90
28863;DHT22;15994;51.796;13.006;2023-03-14T04:30:44;10.80;99.90
28863;DHT22;15994;51.796;13.006;2023-03-14T04:33:11;10.90;99.90
28863;DHT22;15994;51.796;13.006;2023-03-14T04:35:43;10.90;99.90
28863;DHT22;15994;51.796;13.006;2023-03-14T04:38:09;10.90;99.90
28863;DHT22;15994;51.796;13.006;2023-03-14T04:40:40;10.90;99.90
28863;DHT22;15994;51.796;13.006;2023-03-14T04:43:11;10.90;99.90
28863;DHT22;15994;51.796;13.006;2023-03-14T04:45:41;10.90;99.90
28863;DHT22;15994;51.796;13.006;2023-03-14T04:48:08;10.90;99.90
28863;DHT22;15994;51.796;13.006;2023-03-14T04:50:34;10.90;99.90
28863;DHT22;15994;51.796;13.006;2023-03-14T04:53:01;10.90;99.90
28863;DHT22;15994;51.796;13.006;2023-03-14T04:55:27;10.90;99.90
28863;DHT22;15994;51.796;13.006;2023-03-14T04:57:54;10.90;99.90
28863;DHT22;15994;51.796;13.006;2023-03-14T05:00:20;11.00;99.90
28863;DHT22;15994;51.796;13.006;2023-03-14T05:02:47;10.90;99.90
28863;DHT22;15994;51.796;13.006;2023-03-14T05:05:13;10.90;99.90
28863;DHT22;15994;51.796;13.006;2023-03-14T05:07:40;10.80;99.90
28863;DHT22;15994;51.796;13.006;2023-03-14T05:10:07;10.80;99.90
28863;DHT22;15994;51.796;13.006;2023-03-14T05:12:33;10.90;99.90
28863;DHT22;15994;51.796;13.006;2023-03-14T05:15:00;10.80;99.90
28863;DHT22;15994;51.796;13.006;2023-03-14T05:17:27;10.70;99.90
28863;DHT22;15994;51.796;13.006;2023-03-14T05:19:53;10.80;99.90
28863;DHT22;15994;51.796;13.006;2023-03-14T05:22:20;10.70;99.90
28863;DHT22;15994;51.796;13.006;2023-03-14T05:24:46;10.70;99.90
28863;DHT22;15994;51.796;13.006;2023-03-14T05:27:13;10.70;99.90
28863;DHT22;15994;51.796;13.006;2023-03-14T05:29:40;10.70;99.90
28863;DHT22;15994;51.796;13.006;2023-03-14T05:32:06;10.70;99.90
28863;DHT22;15994;51.796;13.006;2023-03-14T05:34:33;10.70;99.90
28863;DHT22;15994;51.796;13.006;2023-03-14T05:36:59;10.60;99.90
28863;DHT22;15994;51.796;13.006;2023-03-14T05:39:26;10.60;99.90
28863;DHT22;15994;51.796;13.006;2023-03-14T05:41:52;10.70;99.90
28863;DHT22;15994;51.796;13.006;2023-03-14T05:44:21;10.70;99.90
28863;DHT22;15994;51.796;13.006;2023-03-14T05:46:47;10.70;99.90
28863;DHT22;15994;51.796;13.006;2023-03-14T05:49:14;10.70;99.90
28863;DHT22;15994;51.796;13.006;2023-03-14T05:51:40;10.80;99.90
28863;DHT22;15994;51.796;13.006;2023-03-14T05:54:07;10.70;99.90
28863;DHT22;15994;51.796;13.006;2023-03-14T05:56:33;10.80;99.90
28863;DHT22;15994;51.796;13.006;2023-03-14T05:59:00;10.80;99.90
28863;DHT22;15994;51.796;13.006;2023-03-14T06:01:28;10.80;99.90
28863;DHT22;15994;51.796;13.006;2023-03-14T06:03:55;10.80;99.90
28863;DHT22;15994;51.796;13.006;2023-03-14T06:06:22;10.80;99.90
28863;DHT22;15994;51.796;13.006;2023-03-14T06:08:49;10.80;99.90
28863;DHT22;15994;51.796;13.006;2023-03-14T06:11:15;10.80;99.90
28863;DHT22;15994;51.796;13.006;2023-03-14T06:13:42;10.80;99.90
28863;DHT22;15994;51.796;13.006;2023-03-14T06:16:08;10.80;99.90
28863;DHT22;15994;51.796;13.006;2023-03-14T06:18:35;10.80;99.90
28863;DHT22;15994;51.796;13.006;2023-03-14T06:21:01;10.80;99.90
28863;DHT22;15994;51.796;13.006;2023-03-14T06:23:28;10.90;99.90
28863;DHT22;15994;51.796;13.006;2023-03-14T06:25:55;10.90;99.90
28863;DHT22;15994;51.796;13.006;2023-03-14T06:28:22;10.90;99.90
28863;DHT22;15994;51.796;13.006;2023-03-14T06:30:48;10.90;99.90
28863;DHT22;15994;51.796;13.006;2023-03-14T06:33:15;10.90;99.90
28863;DHT22;15994;51.796;13.006;2023-03-14T06:35:41;11.00;99.90
28863;DHT22;15994;51.796;13.006;2023-03-14T06:38:08;11.10;99.90
28863;DHT22;15994;51.796;13.006;2023-03-14T06:40:34;11.10;99.90
28863;DHT22;15994;51.796;13.006;2023-03-14T06:43:01;11.20;99.90
28863;DHT22;15994;51.796;13.006;2023-03-14T06:45:27;11.20;99.90
28863;DHT22;15994;51.796;13.006;2023-03-14T06:47:54;11.20;99.90
28863;DHT22;15994;51.796;13.006;2023-03-14T06:50:20;11.30;99.90
28863;DHT22;15994;51.796;13.006;2023-03-14T06:52:48;11.30;99.90
28863;DHT22;15994;51.796;13.006;2023-03-14T06:55:15;11.30;99.90
28863;DHT22;15994;51.796;13.006;2023-03-14T06:57:42;11.30;99.90
28863;DHT22;15994;51.796;13.006;2023-03-14T07:00:11;11.30;99.90
28863;DHT22;15994;51.796;13.006;2023-03-14T07:02:37;11.20;99.90
28863;DHT22;15994;51.796;13.006;2023-03-14T07:05:04;11.20;99.90
28863;DHT22;15994;51.796;13.006;2023-03-14T07:07:31;11.20;99.90
28863;DHT22;15994;51.796;13.006;2023-03-14T07:09:58;11.10;99.90
28863;DHT22;15994;51.796;13.006;2023-03-14T07:12:25;11.10;99.90
28863;DHT22;15994;51.796;13.006;2023-03-14T07:14:52;11.10;99.90
28863;DHT22;15994;51.796;13.006;2023-03-14T07:17:18;11.20;99.90
28863;DHT22;15994;51.796;13.006;2023-03-14T07:19:45;11.20;99.90
28863;DHT22;15994;51.796;13.006;2023-03-14T07:22:11;11.30;99.90
28863;DHT22;15994;51.796;13.006;2023-03-14T07:24:38;11.30;99.90
28863;DHT22;15994;51.796;13.006;2023-03-14T07:27:04;11.30;99.90
28863;DHT22;15994;51.796;13.006;2023-03-14T07:29:31;11.30;99.90
28863;DHT22;15994;51.796;13.006;2023-03-14T07:31:57;11.30;99.90
28863;DHT22;15994;51.796;13.006;2023-03-14T07:34:24;11.30;99.90
28863;DHT22;15994;51.796;13.006;2023-03-14T07:36:50;11.30;99.90
28863;DHT22;15994;51.796;13.006;2023-03-14T07:39:17;11.30;99.90
28863;DHT22;15994;51.796;13.006;2023-03-14T07:41:44;11.30;99.90
28863;DHT22;15994;51.796;13.006;2023-03-14T07:44:11;11.30;99.90
28863;DHT22;15994;51.796;13.006;2023-03-14T07:46:37;11.30;99.90
28863;DHT22;15994;51.796;13.006;2023-03-14T07:49:04;11.40;99.90
28863;DHT22;15994;51.796;13.006;2023-03-14T07:51:30;11.40;99.90
28863;DHT22;15994;51.796;13.006;2023-03-14T07:53:57;11.50;99.90
28863;DHT22;15994;51.796;13.006;2023-03-14T07:56:23;11.60;99.90
28863;DHT22;15994;51.796;13.006;2023-03-14T07:58:50;11.70;99.90
28863;DHT22;15994;51.796;13.006;2023-03-14T08:01:16;11.70;99.90
28863;DHT22;15994;51.796;13.006;2023-03-14T08:03:43;11.80;99.90
28863;DHT22;15994;51.796;13.006;2023-03-14T08:06:09;11.90;99.90
28863;DHT22;15994;51.796;13.006;2023-03-14T08:08:36;12.10;99.90
28863;DHT22;15994;51.796;13.006;2023-03-14T08:11:07;12.30;99.90
28863;DHT22;15994;51.796;13.006;2023-03-14T08:13:36;12.30;99.90
28863;DHT22;15994;51.796;13.006;2023-03-14T08:16:03;12.30;99.90
28863;DHT22;15994;51.796;13.006;2023-03-14T08:18:30;12.40;99.90
28863;DHT22;15994;51.796;13.006;2023-03-14T08:20:56;12.40;99.90
28863;DHT22;15994;51.796;13.006;2023-03-14T08:23:23;12.40;99.90
28863;DHT22;15994;51.796;13.006;2023-03-14T08:25:50;12.50;99.90
28863;DHT22;15994;51.796;13.006;2023-03-14T08:28:18;12.70;99.90
28863;DHT22;15994;51.796;13.006;2023-03-14T08:30:45;12.70;99.90
28863;DHT22;15994;51.796;13.006;2023-03-14T08:33:11;12.70;99.90
28863;DHT22;15994;51.796;13.006;2023-03-14T08:35:38;12.80;99.90
28863;DHT22;15994;51.796;13.006;2023-03-14T08:38:05;12.90;99.90
28863;DHT22;15994;51.796;13.006;2023-03-14T08:40:31;12.90;99.90
28863;DHT22;15994;51.796;13.006;2023-03-14T08:42:58;12.90;99.90
28863;DHT22;15994;51.796;13.006;2023-03-14T08:45:24;12.90;99.90
28863;DHT22;15994;51.796;13.006;2023-03-14T08:47:51;13.00;99.90
28863;DHT22;15994;51.796;13.006;2023-03-14T08:50:18;13.20;99.90
28863;DHT22;15994;51.796;13.006;2023-03-14T08:52:44;13.30;99.90
28863;DHT22;15994;51.796;13.006;2023-03-14T08:55:11;13.40;99.90
28863;DHT22;15994;51.796;13.006;2023-03-14T08:57:39;13.50;99.90
28863;DHT22;15994;51.796;13.006;2023-03-14T09:00:06;13.50;99.90
28863;DHT22;15994;51.796;13.006;2023-03-14T09:02:37;13.60;99.90
28863;DHT22;15994;51.796;13.006;2023-03-14T09:05:04;13.70;99.90
28863;DHT22;15994;51.796;13.006;2023-03-14T09:07:31;13.90;99.90
28863;DHT22;15994;51.796;13.006;2023-03-14T09:09:57;14.00;99.90
28863;DHT22;15994;51.796;13.006;2023-03-14T09:12:24;14.10;99.90
28863;DHT22;15994;51.796;13.006;2023-03-14T09:14:50;14.10;99.90
28863;DHT22;15994;51.796;13.006;2023-03-14T09:17:17;13.90;99.90
28863;DHT22;15994;51.796;13.006;2023-03-14T09:19:43;13.90;99.90
28863;DHT22;15994;51.796;13.006;2023-03-14T09:22:10;13.80;99.90
28863;DHT22;15994;51.796;13.006;2023-03-14T09:24:37;13.90;99.90
28863;DHT22;15994;51.796;13.006;2023-03-14T09:27:04;13.80;99.90
28863;DHT22;15994;51.796;13.006;2023-03-14T09:29:31;13.90;99.90
28863;DHT22;15994;51.796;13.006;2023-03-14T09:31:58;13.80;99.90
28863;DHT22;15994;51.796;13.006;2023-03-14T09:34:25;13.80;99.90
28863;DHT22;15994;51.796;13.006;2023-03-14T09:36:51;13.80;99.90
28863;DHT22;15994;51.796;13.006;2023-03-14T09:39:18;13.70;99.90
28863;DHT22;15994;51.796;13.006;2023-03-14T09:41:49;13.70;99.90
28863;DHT22;15994;51.796;13.006;2023-03-14T09:44:27;13.60;99.90
28863;DHT22;15994;51.796;13.006;2023-03-14T09:46:58;13.60;99.90
28863;DHT22;15994;51.796;13.006;2023-03-14T09:49:28;13.40;99.90
28863;DHT22;15994;51.796;13.006;2023-03-14T09:51:57;13.30;99.90
28863;DHT22;15994;51.796;13.006;2023-03-14T09:54:31;13.30;99.90
28863;DHT22;15994;51.796;13.006;2023-03-14T09:56:59;13.30;99.90
28863;DHT22;15994;51.796;13.006;2023-03-14T09:59:27;13.30;99.90
28863;DHT22;15994;51.796;13.006;2023-03-14T10:02:00;13.30;99.90
28863;DHT22;15994;51.796;13.006;2023-03-14T10:04:28;13.20;99.90
28863;DHT22;15994;51.796;13.006;2023-03-14T10:06:55;13.30;99.90
28863;DHT22;15994;51.796;13.006;2023-03-14T10:09:23;13.30;99.90
28863;DHT22;15994;51.796;13.006;2023-03-14T10:11:55;13.40;99.90
28863;DHT22;15994;51.796;13.006;2023-03-14T10:14:33;13.50;99.90
28863;DHT22;15994;51.796;13.006;2023-03-14T10:17:11;13.40;99.90
28863;DHT22;15994;51.796;13.006;2023-03-14T10:19:51;13.50;99.90
28863;DHT22;15994;51.796;13.006;2023-03-14T10:22:19;13.60;99.90
28863;DHT22;15994;51.796;13.006;2023-03-14T10:24:57;13.70;99.90
28863;DHT22;15994;51.796;13.006;2023-03-14T10:27:33;13.70;99.90
28863;DHT22;15994;51.796;13.006;2023-03-14T10:30:05;13.80;99.90
28863;DHT22;15994;51.796;13.006;2023-03-14T10:32:33;13.90;99.90
28863;DHT22;15994;51.796;13.006;2023-03-14T10:35:18;14.10;99.90
28863;DHT22;15994;51.796;13.006;2023-03-14T10:37:58;14.10;99.90
28863;DHT22;15994;51.796;13.006;2023-03-14T10:40:37;14.00;99.90
28863;DHT22;15994;51.796;13.006;2023-03-14T10:43:06;14.10;99.90
28863;DHT22;15994;51.796;13.006;2023-03-14T10:45:39;14.20;99.90
28863;DHT22;15994;51.796;13.006;2023-03-14T10:51:01;14.30;99.90
28863;DHT22;15994;51.796;13.006;2023-03-14T10:53:33;14.40;99.90
28863;DHT22;15994;51.796;13.006;2023-03-14T10:56:02;14.30;99.90
28863;DHT22;15994;51.796;13.006;2023-03-14T10:58:32;14.30;99.90
28863;DHT22;15994;51.796;13.006;2023-03-14T11:03:36;14.10;99.90
28863;DHT22;15994;51.796;13.006;2023-03-14T11:06:14;14.00;99.90
28863;DHT22;15994;51.796;13.006;2023-03-14T11:11:24;13.90;99.90
28863;DHT22;15994;51.796;13.006;2023-03-14T11:24:46;13.90;99.90
28863;DHT22;15994;51.796;13.006;2023-03-14T11:30:20;13.80;99.90
28863;DHT22;15994;51.796;13.006;2023-03-14T11:33:14;14.00;99.90
28863;DHT22;15994;51.796;13.006;2023-03-14T11:35:53;14.10;99.90
28863;DHT22;15994;51.796;13.006;2023-03-14T11:41:00;14.40;99.90
28863;DHT22;15994;51.796;13.006;2023-03-14T11:43:38;14.30;99.90
28863;DHT22;15994;51.796;13.006;2023-03-14T11:46:27;14.30;99.90
28863;DHT22;15994;51.796;13.006;2023-03-14T11:49:24;14.30;99.90
28863;DHT22;15994;51.796;13.006;2023-03-14T11:51:46;14.40;99.90
28863;DHT22;15994;51.796;13.006;2023-03-14T11:57:05;14.30;99.90
28863;DHT22;15994;51.796;13.006;2023-03-14T12:05:36;13.80;99.90
28863;DHT22;15994;51.796;13.006;2023-03-14T12:10:48;13.30;99.90
28863;DHT22;15994;51.796;13.006;2023-03-14T12:13:16;13.20;99.90
28863;DHT22;15994;51.796;13.006;2023-03-14T12:15:57;13.20;99.90
28863;DHT22;15994;51.796;13.006;2023-03-14T12:18:33;13.20;99.90
28863;DHT22;15994;51.796;13.006;2023-03-14T12:21:05;13.50;99.90
28863;DHT22;15994;51.796;13.006;2023-03-14T12:23:56;13.80;99.90
28863;DHT22;15994;51.796;13.006;2023-03-14T12:26:25;14.10;99.90
28863;DHT22;15994;51.796;13.006;2023-03-14T12:29:11;14.20;99.90
28863;DHT22;15994;51.796;13.006;2023-03-14T12:31:41;14.40;99.90
28863;DHT22;15994;51.796;13.006;2023-03-14T12:42:24;15.10;99.90
28863;DHT22;15994;51.796;13.006;2023-03-14T12:50:25;15.50;99.90
28863;DHT22;15994;51.796;13.006;2023-03-14T12:53:33;15.80;99.90
28863;DHT22;15994;51.796;13.006;2023-03-14T12:56:21;15.60;99.90
28863;DHT22;15994;51.796;13.006;2023-03-14T13:01:53;14.70;99.90
28863;DHT22;15994;51.796;13.006;2023-03-14T13:04:28;14.60;99.90
28863;DHT22;15994;51.796;13.006;2023-03-14T13:07:00;14.40;99.90
28863;DHT22;15994;51.796;13.006;2023-03-14T13:12:09;14.40;99.90
28863;DHT22;15994;51.796;13.006;2023-03-14T13:14:40;14.40;99.90
28863;DHT22;15994;51.796;13.006;2023-03-14T13:17:14;14.40;99.90
28863;DHT22;15994;51.796;13.006;2023-03-14T13:19:43;14.40;99.90
28863;DHT22;15994;51.796;13.006;2023-03-14T13:22:31;14.40;99.90
28863;DHT22;15994;51.796;13.006;2023-03-14T13:25:04;14.30;99.90
28863;DHT22;15994;51.796;13.006;2023-03-14T13:27:33;14.20;99.90
28863;DHT22;15994;51.796;13.006;2023-03-14T13:30:16;14.10;99.90
28863;DHT22;15994;51.796;13.006;2023-03-14T13:32:44;14.20;99.90
28863;DHT22;15994;51.796;13.006;2023-03-14T13:35:18;14.30;99.90
28863;DHT22;15994;51.796;13.006;2023-03-14T13:37:45;14.30;99.90
28863;DHT22;15994;51.796;13.006;2023-03-14T13:40:28;14.40;99.90
28863;DHT22;15994;51.796;13.006;2023-03-14T13:43:04;14.50;99.90
28863;DHT22;15994;51.796;13.006;2023-03-14T13:45:40;14.60;99.90
28863;DHT22;15994;51.796;13.006;2023-03-14T13:48:10;14.70;99.90
28863;DHT22;15994;51.796;13.006;2023-03-14T13:50:37;14.90;99.90
28863;DHT22;15994;51.796;13.006;2023-03-14T13:53:04;15.10;99.90
28863;DHT22;15994;51.796;13.006;2023-03-14T13:55:30;15.20;99.90
28863;DHT22;15994;51.796;13.006;2023-03-14T13:57:57;15.20;99.90
28863;DHT22;15994;51.796;13.006;2023-03-14T14:00:26;15.30;99.90
28863;DHT22;15994;51.796;13.006;2023-03-14T14:03:02;15.20;99.90
28863;DHT22;15994;51.796;13.006;2023-03-14T14:05:29;15.00;99.90
28863;DHT22;15994;51.796;13.006;2023-03-14T14:07:56;15.10;99.90
28863;DHT22;15994;51.796;13.006;2023-03-14T14:10:26;14.90;99.90
28863;DHT22;15994;51.796;13.006;2023-03-14T14:13:01;14.90;99.90
28863;DHT22;15994;51.796;13.006;2023-03-14T14:15:31;15.00;99.90
28863;DHT22;15994;51.796;13.006;2023-03-14T14:18:07;15.10;99.90
28863;DHT22;15994;51.796;13.006;2023-03-14T14:20:42;15.40;99.90
28863;DHT22;15994;51.796;13.006;2023-03-14T14:23:18;15.60;99.90
28863;DHT22;15994;51.796;13.006;2023-03-14T14:25:50;15.70;99.90
28863;DHT22;15994;51.796;13.006;2023-03-14T14:28:37;15.70;99.90
28863;DHT22;15994;51.796;13.006;2023-03-14T14:31:18;15.70;99.90
28863;DHT22;15994;51.796;13.006;2023-03-14T14:34:17;15.40;99.90
28863;DHT22;15994;51.796;13.006;2023-03-14T14:36:45;15.40;99.90
28863;DHT22;15994;51.796;13.006;2023-03-14T14:39:21;15.50;99.90
28863;DHT22;15994;51.796;13.006;2023-03-14T14:41:50;15.40;99.90
28863;DHT22;15994;51.796;13.006;2023-03-14T14:44:30;15.30;99.90
28863;DHT22;15994;51.796;13.006;2023-03-14T14:46:57;15.10;99.90
28863;DHT22;15994;51.796;13.006;2023-03-14T14:49:29;14.90;99.90
28863;DHT22;15994;51.796;13.006;2023-03-14T14:52:03;14.70;99.90
28863;DHT22;15994;51.796;13.006;2023-03-14T14:54:38;14.60;99.90
28863;DHT22;15994;51.796;13.006;2023-03-14T14:57:19;14.60;99.90
28863;DHT22;15994;51.796;13.006;2023-03-14T14:59:49;14.60;99.90
28863;DHT22;15994;51.796;13.006;2023-03-14T15:02:37;14.60;99.90
28863;DHT22;15994;51.796;13.006;2023-03-14T15:05:16;14.60;99.90
28863;DHT22;15994;51.796;13.006;2023-03-14T15:07:43;14.60;99.90
28863;DHT22;15994;51.796;13.006;2023-03-14T15:10:12;14.60;99.90
28863;DHT22;15994;51.796;13.006;2023-03-14T15:12:39;14.50;99.90
28863;DHT22;15994;51.796;13.006;2023-03-14T15:15:07;14.30;99.90
28863;DHT22;15994;51.796;13.006;2023-03-14T15:17:34;14.30;99.90
28863;DHT22;15994;51.796;13.006;2023-03-14T15:20:02;13.00;99.90
28863;DHT22;15994;51.796;13.006;2023-03-14T15:22:29;10.50;99.90
28863;DHT22;15994;51.796;13.006;2023-03-14T15:24:56;9.10;99.90
28863;DHT22;15994;51.796;13.006;2023-03-14T15:27:22;8.80;99.90
28863;DHT22;15994;51.796;13.006;2023-03-14T15:29:49;8.80;99.90
28863;DHT22;15994;51.796;13.006;2023-03-14T15:32:16;8.40;99.90
28863;DHT22;15994;51.796;13.006;2023-03-14T15:34:43;8.30;99.90
28863;DHT22;15994;51.796;13.006;2023-03-14T15:37:15;8.30;99.90
28863;DHT22;15994;51.796;13.006;2023-03-14T15:39:45;8.20;99.90
28863;DHT22;15994;51.796;13.006;2023-03-14T15:42:12;7.90;99.90
28863;DHT22;15994;51.796;13.006;2023-03-14T15:44:38;7.80;99.90
28863;DHT22;15994;51.796;13.006;2023-03-14T15:47:05;7.70;99.90
28863;DHT22;15994;51.796;13.006;2023-03-14T15:49:32;7.80;99.90
28863;DHT22;15994;51.796;13.006;2023-03-14T15:51:58;7.70;99.90
28863;DHT22;15994;51.796;13.006;2023-03-14T15:54:25;7.50;99.90
28863;DHT22;15994;51.796;13.006;2023-03-14T15:56:54;7.40;99.90
28863;DHT22;15994;51.796;13.006;2023-03-14T15:59:21;7.10;99.90
28863;DHT22;15994;51.796;13.006;2023-03-14T16:01:48;6.90;99.90
28863;DHT22;15994;51.796;13.006;2023-03-14T16:04:14;6.70;99.90
28863;DHT22;15994;51.796;13.006;2023-03-14T16:06:41;5.80;99.90
28863;DHT22;15994;51.796;13.006;2023-03-14T17:54:58;3.00;99.90
28863;DHT22;15994;51.796;13.006;2023-03-14T17:57:25;3.00;99.90
28863;DHT22;15994;51.796;13.006;2023-03-14T17:59:51;2.90;99.90
28863;DHT22;15994;51.796;13.006;2023-03-14T18:02:19;3.00;99.90
28863;DHT22;15994;51.796;13.006;2023-03-14T18:04:46;3.00;99.90
28863;DHT22;15994;51.796;13.006;2023-03-14T18:07:12;3.00;99.90
28863;DHT22;15994;51.796;13.006;2023-03-14T18:09:40;3.10;99.90
28863;DHT22;15994;51.796;13.006;2023-03-14T18:12:07;3.10;99.90
28863;DHT22;15994;51.796;13.006;2023-03-14T18:14:35;3.10;99.90
28863;DHT22;15994;51.796;13.006;2023-03-14T18:17:02;3.10;99.90
28863;DHT22;15994;51.796;13.006;2023-03-14T18:19:30;3.10;99.90
28863;DHT22;15994;51.796;13.006;2023-03-14T18:21:56;3.10;99.90
28863;DHT22;15994;51.796;13.006;2023-03-14T18:24:23;3.10;99.90
28863;DHT22;15994;51.796;13.006;2023-03-14T18:26:49;3.10;99.90